createdAt,value
2023-08-27T00:00:34.148Z,40.57
2023-08-27T00:01:34.153Z,40.23
2023-08-27T00:02:34.169Z,40.40
2023-08-27T00:03:34.248Z,39.49
2023-08-27T00:04:34.115Z,40.39
2023-08-27T00:05:34.123Z,42.02
2023-08-27T00:06:34.087Z,41.79
2023-08-27T00:07:35.088Z,43.30
2023-08-27T00:08:34.122Z,39.74
2023-08-27T00:09:34.091Z,40.56
2023-08-27T00:10:34.098Z,41.28
2023-08-27T00:11:34.068Z,39.62
2023-08-27T00:12:34.075Z,41.88
2023-08-27T00:13:34.088Z,42.67
2023-08-27T00:14:34.049Z,39.43
2023-08-27T00:15:34.038Z,39.25
2023-08-27T00:16:34.091Z,39.23
2023-08-27T00:17:34.098Z,40.75
2023-08-27T00:18:34.044Z,40.55
2023-08-27T00:19:34.010Z,39.19
2023-08-27T00:20:33.996Z,40.84
2023-08-27T00:21:33.992Z,39.60
2023-08-27T00:22:33.999Z,41.50
2023-08-27T00:23:33.986Z,39.20
2023-08-27T00:24:33.983Z,40.24
2023-08-27T00:25:33.970Z,39.41
2023-08-27T00:26:33.983Z,42.52
2023-08-27T00:27:33.965Z,41.31
2023-08-27T00:28:33.942Z,40.42
2023-08-27T00:29:33.954Z,38.98
2023-08-27T00:30:33.975Z,40.63
2023-08-27T00:31:34.466Z,39.04
2023-08-27T00:32:33.943Z,41.20
2023-08-27T00:33:33.920Z,39.30
2023-08-27T00:34:33.899Z,39.75
2023-08-27T00:35:33.901Z,40.52
2023-08-27T00:36:33.922Z,40.45
2023-08-27T00:37:33.877Z,40.29
2023-08-27T00:38:33.950Z,39.34
2023-08-27T00:39:33.858Z,39.61
2023-08-27T00:40:33.877Z,40.62
2023-08-27T00:41:33.881Z,41.23
2023-08-27T00:42:33.875Z,39.57
2023-08-27T00:43:33.840Z,39.13
2023-08-27T00:44:33.852Z,39.12
2023-08-27T00:45:33.867Z,39.31
2023-08-27T00:46:33.820Z,39.26
2023-08-27T00:47:33.874Z,39.98
2023-08-27T00:48:33.796Z,40.47
2023-08-27T00:49:33.860Z,39.26
2023-08-27T00:50:33.845Z,39.47
2023-08-27T00:51:33.789Z,39.86
2023-08-27T00:52:33.769Z,40.45
2023-08-27T00:53:33.771Z,40.48
2023-08-27T00:54:33.796Z,41.14
2023-08-27T00:55:33.779Z,40.58
2023-08-27T00:56:33.737Z,40.54
2023-08-27T00:57:33.728Z,39.81
2023-08-27T00:58:33.722Z,40.66
2023-08-27T00:59:33.734Z,40.61
2023-08-27T01:00:33.732Z,40.23
2023-08-27T01:01:33.730Z,41.32
2023-08-27T01:02:33.768Z,40.55
2023-08-27T01:03:33.741Z,41.21
2023-08-27T01:04:33.739Z,39.85
2023-08-27T01:05:33.669Z,40.04
2023-08-27T01:06:33.656Z,40.42
2023-08-27T01:07:33.676Z,40.65
2023-08-27T01:08:33.693Z,40.82
2023-08-27T01:09:33.662Z,41.05
2023-08-27T01:10:33.656Z,40.02
2023-08-27T01:11:33.677Z,40.14
2023-08-27T01:12:33.634Z,40.01
2023-08-27T01:13:33.648Z,39.79
2023-08-27T01:14:33.725Z,40.94
2023-08-27T01:15:33.635Z,41.37
2023-08-27T01:16:33.600Z,39.92
2023-08-27T01:17:33.649Z,39.98
2023-08-27T01:18:33.598Z,40.32
2023-08-27T01:19:33.583Z,41.28
2023-08-27T01:20:33.595Z,41.72
2023-08-27T01:21:33.561Z,40.50
2023-08-27T01:22:33.584Z,41.19
2023-08-27T01:23:33.564Z,39.93
2023-08-27T01:24:33.529Z,42.33
2023-08-27T01:25:33.518Z,40.60
2023-08-27T01:26:33.529Z,39.80
2023-08-27T01:27:33.522Z,39.61
2023-08-27T01:28:33.516Z,41.79
2023-08-27T01:29:33.485Z,41.74
2023-08-27T01:30:33.505Z,43.34
2023-08-27T01:31:33.523Z,40.77
2023-08-27T01:32:33.847Z,41.86
2023-08-27T01:33:33.492Z,39.82
2023-08-27T01:34:33.474Z,39.79
2023-08-27T01:35:33.481Z,41.09
2023-08-27T01:36:33.509Z,39.76
2023-08-27T01:37:33.462Z,40.02
2023-08-27T01:38:33.443Z,41.09
2023-08-27T01:39:33.445Z,40.29
2023-08-27T01:40:33.422Z,41.33
2023-08-27T01:41:33.445Z,41.25
2023-08-27T01:42:33.416Z,40.11
2023-08-27T01:43:33.448Z,40.60
2023-08-27T01:44:33.393Z,40.01
2023-08-27T01:45:33.408Z,41.73
2023-08-27T01:46:33.436Z,40.04
2023-08-27T01:47:33.398Z,41.38
2023-08-27T01:48:33.374Z,39.91
2023-08-27T01:49:33.356Z,40.84
2023-08-27T01:50:33.378Z,40.55
2023-08-27T01:51:33.384Z,41.04
2023-08-27T01:52:33.350Z,41.25
2023-08-27T01:53:33.358Z,40.22
2023-08-27T01:54:33.316Z,40.26
2023-08-27T01:55:33.349Z,42.27
2023-08-27T01:56:33.308Z,40.78
2023-08-27T01:57:33.313Z,40.80
2023-08-27T01:58:33.305Z,40.09
2023-08-27T01:59:33.316Z,40.07
2023-08-27T02:00:33.444Z,39.79
2023-08-27T02:01:33.326Z,40.02
2023-08-27T02:02:33.340Z,40.10
2023-08-27T02:03:33.259Z,40.08
2023-08-27T02:04:33.295Z,40.13
2023-08-27T02:05:33.245Z,39.87
2023-08-27T02:06:33.248Z,39.97
2023-08-27T02:07:33.242Z,40.03
2023-08-27T02:08:33.248Z,41.47
2023-08-27T02:09:33.231Z,40.29
2023-08-27T02:10:33.238Z,41.54
2023-08-27T02:11:33.225Z,39.87
2023-08-27T02:12:33.200Z,40.39
2023-08-27T02:13:33.200Z,39.83
2023-08-27T02:14:33.203Z,39.64
2023-08-27T02:15:33.163Z,39.73
2023-08-27T02:16:33.238Z,39.65
2023-08-27T02:17:33.196Z,40.70
2023-08-27T02:18:33.287Z,40.40
2023-08-27T02:19:33.138Z,41.33
2023-08-27T02:20:33.131Z,40.24
2023-08-27T02:21:33.134Z,39.71
2023-08-27T02:22:33.126Z,39.67
2023-08-27T02:23:33.134Z,39.82
2023-08-27T02:24:33.101Z,39.88
2023-08-27T02:25:33.110Z,39.97
2023-08-27T02:26:33.096Z,39.92
2023-08-27T02:27:33.105Z,41.42
2023-08-27T02:28:33.102Z,42.19
2023-08-27T02:29:33.078Z,39.84
2023-08-27T02:30:33.115Z,39.94
2023-08-27T02:31:33.065Z,39.90
2023-08-27T02:32:33.092Z,41.41
2023-08-27T02:33:33.047Z,41.09
2023-08-27T02:34:33.025Z,42.29
2023-08-27T02:35:33.029Z,40.42
2023-08-27T02:36:33.011Z,40.76
2023-08-27T02:37:33.038Z,39.97
2023-08-27T02:38:32.997Z,40.89
2023-08-27T02:39:32.988Z,40.17
2023-08-27T02:40:33.059Z,40.40
2023-08-27T02:41:33.022Z,40.34
2023-08-27T02:42:33.001Z,40.41
2023-08-27T02:43:32.987Z,41.65
2023-08-27T02:44:32.965Z,42.33
2023-08-27T02:45:32.945Z,41.32
2023-08-27T02:46:33.044Z,41.26
2023-08-27T02:47:33.003Z,41.47
2023-08-27T02:48:32.940Z,42.70
2023-08-27T02:49:32.917Z,40.21
2023-08-27T02:50:32.915Z,41.39
2023-08-27T02:51:32.950Z,40.38
2023-08-27T02:52:32.913Z,41.18
2023-08-27T02:53:32.916Z,41.02
2023-08-27T02:54:32.890Z,40.01
2023-08-27T02:55:32.966Z,40.05
2023-08-27T02:56:32.891Z,40.14
2023-08-27T02:57:32.875Z,40.67
2023-08-27T02:58:32.851Z,41.81
2023-08-27T02:59:32.868Z,39.96
2023-08-27T03:00:32.866Z,41.00
2023-08-27T03:01:32.920Z,42.68
2023-08-27T03:02:32.828Z,40.24
2023-08-27T03:03:32.863Z,42.49
2023-08-27T03:04:32.814Z,40.75
2023-08-27T03:05:32.875Z,41.52
2023-08-27T03:06:32.813Z,39.70
2023-08-27T03:07:32.807Z,39.85
2023-08-27T03:08:32.793Z,40.00
2023-08-27T03:09:32.841Z,40.14
2023-08-27T03:10:32.790Z,39.97
2023-08-27T03:11:32.772Z,40.66
2023-08-27T03:12:32.767Z,40.48
2023-08-27T03:13:32.764Z,39.99
2023-08-27T03:14:32.771Z,40.08
2023-08-27T03:15:33.749Z,40.11
2023-08-27T03:16:32.758Z,40.50
2023-08-27T03:17:32.742Z,41.16
2023-08-27T03:18:32.753Z,41.44
2023-08-27T03:19:32.729Z,41.73
2023-08-27T03:20:32.723Z,40.89
2023-08-27T03:21:32.699Z,40.29
2023-08-27T03:22:32.703Z,40.35
2023-08-27T03:23:32.737Z,40.22
2023-08-27T03:24:32.679Z,41.14
2023-08-27T03:25:32.667Z,40.64
2023-08-27T03:26:32.673Z,40.21
2023-08-27T03:27:32.672Z,40.84
2023-08-27T03:28:32.669Z,40.23
2023-08-27T03:29:32.639Z,39.86
2023-08-27T03:30:32.638Z,42.13
2023-08-27T03:31:32.646Z,40.78
2023-08-27T03:32:32.663Z,40.22
2023-08-27T03:33:32.658Z,39.91
2023-08-27T03:34:32.600Z,40.57
2023-08-27T03:35:32.597Z,41.08
2023-08-27T03:36:32.607Z,41.83
2023-08-27T03:37:32.616Z,40.10
2023-08-27T03:38:32.581Z,40.00
2023-08-27T03:39:32.881Z,41.75
2023-08-27T03:40:32.561Z,40.78
2023-08-27T03:41:32.552Z,41.15
2023-08-27T03:42:32.563Z,40.83
2023-08-27T03:43:32.534Z,40.78
2023-08-27T03:44:32.558Z,40.61
2023-08-27T03:45:32.516Z,40.15
2023-08-27T03:46:32.542Z,40.09
2023-08-27T03:47:32.584Z,40.26
2023-08-27T03:48:32.509Z,39.98
2023-08-27T03:49:32.490Z,40.13
2023-08-27T03:50:32.481Z,42.24
2023-08-27T03:51:32.542Z,40.66
2023-08-27T03:52:32.476Z,40.03
2023-08-27T03:53:32.477Z,40.08
2023-08-27T03:54:32.470Z,42.25
2023-08-27T03:55:32.454Z,41.34
2023-08-27T03:56:32.475Z,40.14
2023-08-27T03:57:32.448Z,41.57
2023-08-27T03:58:32.424Z,40.12
2023-08-27T03:59:32.417Z,40.30
2023-08-27T04:00:32.430Z,40.56
2023-08-27T04:01:32.463Z,40.39
2023-08-27T04:02:32.412Z,40.39
2023-08-27T04:03:32.478Z,39.79
2023-08-27T04:04:32.386Z,40.15
2023-08-27T04:05:32.412Z,39.71
2023-08-27T04:06:32.391Z,39.94
2023-08-27T04:07:32.361Z,40.42
2023-08-27T04:08:32.353Z,40.44
2023-08-27T04:09:32.356Z,41.01
2023-08-27T04:10:32.373Z,40.63
2023-08-27T04:11:32.331Z,39.66
2023-08-27T04:12:32.317Z,39.80
2023-08-27T04:13:33.354Z,39.95
2023-08-27T04:14:32.317Z,39.71
2023-08-27T04:15:32.352Z,41.05
2023-08-27T04:16:32.317Z,40.99
2023-08-27T04:17:32.429Z,41.11
2023-08-27T04:18:32.291Z,40.70
2023-08-27T04:19:32.305Z,39.97
2023-08-27T04:20:32.298Z,40.60
2023-08-27T04:21:32.279Z,41.30
2023-08-27T04:22:32.264Z,41.69
2023-08-27T04:23:32.255Z,42.02
2023-08-27T04:24:32.320Z,43.25
2023-08-27T04:25:32.243Z,44.21
2023-08-27T04:26:32.237Z,42.21
2023-08-27T04:27:32.283Z,40.75
2023-08-27T04:28:32.249Z,40.25
2023-08-27T04:29:32.235Z,41.40
2023-08-27T04:30:33.312Z,40.70
2023-08-27T04:31:34.033Z,40.34
2023-08-27T04:32:32.218Z,41.61
2023-08-27T04:33:32.195Z,43.41
2023-08-27T04:34:32.218Z,41.76
2023-08-27T04:35:32.174Z,40.74
2023-08-27T04:36:32.160Z,41.52
2023-08-27T04:37:32.161Z,42.14
2023-08-27T04:38:32.173Z,43.03
2023-08-27T04:39:32.128Z,40.60
2023-08-27T04:40:32.162Z,41.68
2023-08-27T04:41:32.113Z,40.59
2023-08-27T04:42:32.133Z,40.58
2023-08-27T04:43:32.134Z,41.35
2023-08-27T04:44:32.120Z,41.71
2023-08-27T04:45:32.132Z,40.80
2023-08-27T04:46:32.150Z,39.99
2023-08-27T04:47:32.189Z,40.25
2023-08-27T04:48:32.085Z,41.27
2023-08-27T04:49:32.070Z,40.06
2023-08-27T04:50:32.095Z,40.13
2023-08-27T04:51:32.116Z,41.76
2023-08-27T04:52:33.017Z,41.49
2023-08-27T04:53:32.036Z,41.30
2023-08-27T04:54:32.054Z,40.47
2023-08-27T04:55:32.015Z,42.61
2023-08-27T04:56:32.018Z,41.91
2023-08-27T04:57:32.010Z,42.46
2023-08-27T04:58:31.987Z,40.60
2023-08-27T04:59:31.993Z,40.97
2023-08-27T05:00:31.988Z,42.00
2023-08-27T05:01:32.043Z,40.53
2023-08-27T05:02:32.253Z,40.61
2023-08-27T05:03:32.030Z,41.44
2023-08-27T05:04:31.944Z,42.09
2023-08-27T05:05:31.955Z,40.49
2023-08-27T05:06:32.003Z,40.50
2023-08-27T05:07:34.801Z,40.20
2023-08-27T05:08:31.954Z,40.39
2023-08-27T05:09:32.095Z,40.65
2023-08-27T05:10:31.986Z,41.50
2023-08-27T05:11:32.086Z,42.42
2023-08-27T05:12:31.972Z,40.35
2023-08-27T05:13:32.089Z,40.89
2023-08-27T05:14:32.064Z,40.10
2023-08-27T05:15:32.384Z,41.23
2023-08-27T05:16:31.969Z,40.93
2023-08-27T05:17:31.893Z,40.59
2023-08-27T05:18:32.072Z,40.90
2023-08-27T05:19:32.353Z,40.66
2023-08-27T05:20:32.069Z,40.53
2023-08-27T05:21:32.810Z,40.10
2023-08-27T05:22:32.907Z,40.55
2023-08-27T05:23:32.809Z,40.57
2023-08-27T05:24:32.231Z,40.98
2023-08-27T05:25:31.931Z,40.10
2023-08-27T05:26:32.111Z,42.01
2023-08-27T05:27:31.971Z,41.62
2023-08-27T05:28:31.918Z,42.05
2023-08-27T05:29:31.854Z,40.90
2023-08-27T05:30:31.840Z,41.91
2023-08-27T05:31:31.953Z,42.44
2023-08-27T05:32:31.928Z,40.66
2023-08-27T05:33:32.118Z,41.53
2023-08-27T05:34:32.040Z,41.85
2023-08-27T05:35:31.967Z,40.96
2023-08-27T05:36:31.899Z,42.40
2023-08-27T05:37:31.917Z,41.25
2023-08-27T05:38:31.728Z,43.09
2023-08-27T05:39:31.738Z,40.59
2023-08-27T05:40:31.721Z,40.29
2023-08-27T05:41:31.800Z,42.53
2023-08-27T05:42:31.684Z,40.22
2023-08-27T05:43:31.710Z,40.20
2023-08-27T05:44:31.681Z,40.83
2023-08-27T05:45:31.677Z,40.03
2023-08-27T05:46:31.693Z,39.96
2023-08-27T05:47:31.732Z,41.12
2023-08-27T05:48:34.001Z,40.53
2023-08-27T05:49:32.667Z,41.69
2023-08-27T05:50:31.644Z,42.13
2023-08-27T05:51:31.630Z,41.95
2023-08-27T05:52:31.677Z,42.33
2023-08-27T05:53:31.638Z,41.70
2023-08-27T05:54:31.601Z,41.98
2023-08-27T05:55:31.649Z,41.91
2023-08-27T05:56:31.607Z,41.81
2023-08-27T05:57:31.594Z,41.94
2023-08-27T05:58:31.794Z,43.06
2023-08-27T05:59:31.902Z,43.96
2023-08-27T06:00:31.590Z,41.01
2023-08-27T06:01:31.611Z,42.26
2023-08-27T06:02:31.596Z,40.28
2023-08-27T06:03:31.570Z,42.01
2023-08-27T06:04:31.539Z,42.21
2023-08-27T06:05:31.531Z,41.19
2023-08-27T06:06:31.518Z,43.05
2023-08-27T06:07:31.971Z,42.68
2023-08-27T06:08:32.544Z,41.98
2023-08-27T06:09:31.515Z,43.03
2023-08-27T06:10:31.531Z,42.44
2023-08-27T06:11:31.504Z,41.69
2023-08-27T06:12:31.510Z,41.53
2023-08-27T06:13:31.486Z,42.75
2023-08-27T06:14:31.479Z,42.17
2023-08-27T06:15:31.462Z,40.88
2023-08-27T06:16:31.517Z,41.65
2023-08-27T06:17:31.450Z,42.19
2023-08-27T06:18:31.681Z,43.80
2023-08-27T06:19:39.646Z,40.86
2023-08-27T06:20:33.436Z,43.00
2023-08-27T06:21:31.471Z,40.81
2023-08-27T06:22:31.460Z,42.49
2023-08-27T06:23:31.413Z,42.16
2023-08-27T06:24:31.408Z,41.07
2023-08-27T06:25:31.420Z,42.21
2023-08-27T06:26:31.404Z,41.93
2023-08-27T06:27:31.377Z,46.36
2023-08-27T06:28:31.412Z,41.94
2023-08-27T06:29:31.363Z,41.62
2023-08-27T06:30:31.395Z,41.99
2023-08-27T06:31:31.387Z,44.01
2023-08-27T06:32:31.362Z,41.59
2023-08-27T06:33:31.348Z,41.19
2023-08-27T06:34:31.371Z,43.04
2023-08-27T06:35:31.359Z,42.38
2023-08-27T06:36:31.317Z,40.89
2023-08-27T06:37:31.319Z,40.69
2023-08-27T06:38:31.312Z,40.66
2023-08-27T06:39:31.326Z,39.93
2023-08-27T06:40:31.307Z,39.83
2023-08-27T06:41:31.281Z,42.84
2023-08-27T06:42:31.263Z,40.90
2023-08-27T06:43:31.271Z,40.59
2023-08-27T06:44:31.288Z,41.56
2023-08-27T06:45:31.269Z,41.76
2023-08-27T06:46:31.269Z,41.37
2023-08-27T06:47:31.247Z,40.33
2023-08-27T06:48:31.428Z,41.37
2023-08-27T06:49:31.244Z,42.05
2023-08-27T06:50:31.229Z,42.11
2023-08-27T06:51:31.206Z,41.63
2023-08-27T06:52:31.229Z,41.53
2023-08-27T06:53:31.208Z,40.92
2023-08-27T06:54:31.212Z,41.18
2023-08-27T06:55:31.199Z,40.94
2023-08-27T06:56:31.182Z,42.17
2023-08-27T06:57:31.175Z,41.78
2023-08-27T06:58:31.175Z,40.02
2023-08-27T06:59:31.155Z,40.66
2023-08-27T07:00:32.592Z,40.25
2023-08-27T07:01:31.130Z,39.73
2023-08-27T07:02:31.142Z,40.27
2023-08-27T07:03:31.176Z,39.86
2023-08-27T07:04:31.114Z,41.00
2023-08-27T07:05:31.105Z,40.87
2023-08-27T07:06:31.105Z,45.76
2023-08-27T07:07:31.106Z,41.45
2023-08-27T07:08:31.115Z,41.54
2023-08-27T07:09:31.090Z,42.06
2023-08-27T07:10:31.085Z,40.29
2023-08-27T07:11:31.064Z,40.24
2023-08-27T07:12:31.087Z,39.19
2023-08-27T07:13:31.055Z,41.37
2023-08-27T07:14:31.114Z,42.08
2023-08-27T07:15:31.062Z,41.21
2023-08-27T07:16:31.029Z,41.50
2023-08-27T07:17:31.137Z,43.85
2023-08-27T07:18:31.035Z,45.69
2023-08-27T07:19:32.447Z,41.78
2023-08-27T07:20:32.121Z,43.60
2023-08-27T07:21:31.024Z,46.59
2023-08-27T07:22:31.013Z,42.61
2023-08-27T07:23:30.987Z,42.51
2023-08-27T07:24:31.000Z,42.43
2023-08-27T07:25:31.091Z,40.52
2023-08-27T07:26:30.985Z,44.00
2023-08-27T07:27:31.001Z,43.93
2023-08-27T07:28:31.004Z,43.67
2023-08-27T07:29:30.957Z,41.97
2023-08-27T07:30:31.023Z,41.37
2023-08-27T07:31:31.081Z,42.09
2023-08-27T07:32:30.914Z,41.39
2023-08-27T07:33:30.912Z,39.45
2023-08-27T07:34:30.918Z,42.34
2023-08-27T07:35:30.914Z,40.38
2023-08-27T07:36:30.939Z,40.30
2023-08-27T07:37:30.919Z,41.57
2023-08-27T07:38:30.879Z,41.36
2023-08-27T07:39:30.867Z,40.99
2023-08-27T07:40:31.035Z,41.99
2023-08-27T07:41:31.732Z,42.74
2023-08-27T07:42:30.855Z,42.66
2023-08-27T07:43:31.731Z,42.10
2023-08-27T07:44:30.859Z,40.15
2023-08-27T07:45:30.848Z,41.91
2023-08-27T07:46:30.930Z,44.46
2023-08-27T07:47:31.067Z,41.47
2023-08-27T07:48:30.847Z,43.22
2023-08-27T07:49:30.904Z,40.76
2023-08-27T07:50:31.745Z,41.83
2023-08-27T07:51:30.871Z,42.71
2023-08-27T07:52:31.734Z,41.09
2023-08-27T07:53:30.899Z,42.15
2023-08-27T07:54:30.800Z,41.31
2023-08-27T07:55:31.743Z,42.06
2023-08-27T07:56:31.737Z,41.98
2023-08-27T07:57:31.729Z,41.39
2023-08-27T07:58:30.908Z,41.45
2023-08-27T07:59:31.763Z,40.21
2023-08-27T08:00:31.058Z,41.49
2023-08-27T08:01:30.883Z,41.57
2023-08-27T08:02:31.689Z,41.87
2023-08-27T08:03:31.270Z,40.33
2023-08-27T08:04:30.961Z,42.37
2023-08-27T08:05:30.906Z,41.33
2023-08-27T08:06:30.933Z,42.18
2023-08-27T08:07:30.758Z,38.70
2023-08-27T08:08:30.873Z,40.93
2023-08-27T08:09:30.881Z,39.36
2023-08-27T08:10:31.649Z,40.93
2023-08-27T08:11:30.896Z,39.41
2023-08-27T08:12:30.630Z,38.68
2023-08-27T08:13:30.811Z,38.35
2023-08-27T08:14:30.699Z,39.08
2023-08-27T08:15:30.813Z,40.01
2023-08-27T08:16:30.648Z,41.46
2023-08-27T08:17:43.734Z,40.99
2023-08-27T08:18:32.665Z,42.41
2023-08-27T08:19:30.587Z,41.01
2023-08-27T08:20:30.575Z,41.18
2023-08-27T08:21:30.600Z,42.42
2023-08-27T08:22:30.712Z,42.05
2023-08-27T08:23:30.559Z,43.48
2023-08-27T08:24:30.538Z,40.84
2023-08-27T08:25:30.550Z,39.66
2023-08-27T08:26:30.542Z,37.28
2023-08-27T08:27:30.547Z,38.67
2023-08-27T08:28:30.525Z,40.29
2023-08-27T08:29:30.503Z,39.22
2023-08-27T08:30:30.507Z,41.07
2023-08-27T08:31:30.542Z,40.34
2023-08-27T08:32:30.533Z,40.85
2023-08-27T08:33:30.479Z,41.79
2023-08-27T08:34:30.477Z,43.15
2023-08-27T08:35:30.467Z,42.86
2023-08-27T08:36:32.321Z,39.27
2023-08-27T08:37:30.457Z,40.84
2023-08-27T08:38:30.448Z,43.32
2023-08-27T08:39:30.432Z,41.89
2023-08-27T08:40:30.431Z,41.35
2023-08-27T08:41:30.453Z,46.97
2023-08-27T08:42:30.450Z,41.72
2023-08-27T08:43:30.428Z,42.55
2023-08-27T08:44:30.401Z,41.24
2023-08-27T08:45:30.420Z,41.62
2023-08-27T08:46:30.439Z,42.15
2023-08-27T08:47:30.411Z,42.46
2023-08-27T08:48:30.372Z,40.56
2023-08-27T08:49:30.395Z,41.30
2023-08-27T08:50:30.399Z,41.16
2023-08-27T08:51:30.497Z,40.93
2023-08-27T08:52:30.348Z,41.13
2023-08-27T08:53:30.337Z,41.35
2023-08-27T08:54:30.331Z,41.35
2023-08-27T08:55:30.349Z,41.76
2023-08-27T08:56:30.309Z,40.16
2023-08-27T08:57:30.302Z,43.39
2023-08-27T08:58:30.288Z,45.53
2023-08-27T08:59:30.337Z,42.45
2023-08-27T09:00:30.435Z,41.96
2023-08-27T09:01:30.363Z,41.15
2023-08-27T09:02:30.308Z,45.65
2023-08-27T09:03:30.255Z,42.66
2023-08-27T09:04:30.278Z,42.73
2023-08-27T09:05:30.308Z,42.61
2023-08-27T09:06:30.262Z,43.04
2023-08-27T09:07:30.250Z,40.85
2023-08-27T09:08:30.210Z,47.09
2023-08-27T09:09:30.227Z,43.60
2023-08-27T09:10:30.205Z,43.05
2023-08-27T09:11:30.203Z,41.49
2023-08-27T09:12:30.189Z,41.71
2023-08-27T09:13:30.194Z,42.17
2023-08-27T09:14:31.209Z,43.48
2023-08-27T09:15:30.177Z,39.98
2023-08-27T09:16:31.198Z,46.42
2023-08-27T09:17:31.134Z,42.67
2023-08-27T09:18:30.161Z,46.14
2023-08-27T09:19:30.154Z,43.97
2023-08-27T09:20:30.178Z,44.46
2023-08-27T09:21:30.117Z,45.46
2023-08-27T09:22:30.124Z,45.19
2023-08-27T09:23:30.173Z,40.18
2023-08-27T09:24:30.107Z,44.65
2023-08-27T09:25:30.105Z,44.39
2023-08-27T09:26:30.092Z,45.73
2023-08-27T09:27:30.101Z,45.10
2023-08-27T09:28:30.092Z,47.29
2023-08-27T09:29:30.065Z,45.32
2023-08-27T09:30:30.060Z,45.66
2023-08-27T09:31:30.069Z,44.08
2023-08-27T09:32:30.124Z,42.10
2023-08-27T09:33:30.034Z,48.17
2023-08-27T09:34:30.027Z,42.69
2023-08-27T09:35:30.031Z,43.89
2023-08-27T09:36:30.063Z,49.94
2023-08-27T09:37:30.048Z,46.96
2023-08-27T09:38:30.021Z,48.48
2023-08-27T09:39:29.989Z,44.72
2023-08-27T09:40:30.033Z,43.28
2023-08-27T09:41:30.024Z,42.28
2023-08-27T09:42:30.025Z,44.50
2023-08-27T09:43:29.969Z,44.63
2023-08-27T09:44:29.958Z,44.29
2023-08-27T09:45:29.950Z,43.38
2023-08-27T09:46:30.031Z,40.81
2023-08-27T09:47:29.953Z,41.69
2023-08-27T09:48:29.976Z,44.02
2023-08-27T09:49:29.922Z,41.94
2023-08-27T09:50:30.909Z,43.37
2023-08-27T09:51:29.918Z,42.44
2023-08-27T09:52:29.957Z,45.08
2023-08-27T09:53:29.891Z,43.78
2023-08-27T09:54:29.906Z,43.17
2023-08-27T09:55:29.911Z,42.75
2023-08-27T09:56:29.881Z,41.29
2023-08-27T09:57:29.866Z,41.71
2023-08-27T09:58:29.843Z,43.18
2023-08-27T09:59:29.837Z,42.34
2023-08-27T10:00:29.867Z,43.45
2023-08-27T10:01:29.912Z,44.07
2023-08-27T10:02:29.855Z,41.65
2023-08-27T10:03:29.860Z,41.32
2023-08-27T10:04:29.811Z,41.41
2023-08-27T10:05:29.985Z,43.15
2023-08-27T10:06:29.812Z,44.90
2023-08-27T10:07:29.811Z,43.53
2023-08-27T10:08:29.804Z,46.08
2023-08-27T10:09:29.800Z,42.05
2023-08-27T10:10:29.799Z,43.01
2023-08-27T10:11:29.768Z,43.67
2023-08-27T10:12:29.761Z,41.95
2023-08-27T10:13:29.770Z,41.32
2023-08-27T10:14:29.839Z,44.89
2023-08-27T10:15:29.719Z,42.84
2023-08-27T10:16:29.725Z,41.18
2023-08-27T10:17:29.740Z,44.20
2023-08-27T10:18:29.732Z,42.07
2023-08-27T10:19:29.754Z,42.82
2023-08-27T10:20:29.681Z,41.03
2023-08-27T10:21:29.680Z,42.51
2023-08-27T10:22:29.668Z,39.49
2023-08-27T10:23:29.657Z,43.54
2023-08-27T10:24:29.685Z,43.41
2023-08-27T10:25:29.647Z,42.05
2023-08-27T10:26:29.635Z,40.83
2023-08-27T10:27:29.627Z,44.34
2023-08-27T10:28:29.656Z,44.42
2023-08-27T10:29:29.913Z,45.35
2023-08-27T10:30:29.615Z,43.54
2023-08-27T10:31:29.702Z,44.41
2023-08-27T10:32:29.655Z,46.85
2023-08-27T10:33:29.614Z,43.45
2023-08-27T10:34:29.639Z,42.92
2023-08-27T10:35:29.593Z,39.69
2023-08-27T10:36:29.579Z,42.74
2023-08-27T10:37:29.563Z,42.17
2023-08-27T10:38:29.585Z,43.10
2023-08-27T10:39:29.561Z,41.08
2023-08-27T10:40:29.540Z,40.78
2023-08-27T10:41:30.544Z,43.69
2023-08-27T10:42:29.565Z,41.41
2023-08-27T10:43:29.535Z,41.96
2023-08-27T10:44:29.520Z,44.74
2023-08-27T10:45:29.528Z,42.97
2023-08-27T10:46:29.518Z,42.98
2023-08-27T10:47:29.520Z,45.74
2023-08-27T10:48:29.480Z,43.75
2023-08-27T10:49:29.483Z,45.38
2023-08-27T10:50:29.490Z,44.12
2023-08-27T10:51:29.465Z,44.42
2023-08-27T10:52:29.509Z,44.37
2023-08-27T10:53:29.437Z,43.11
2023-08-27T10:54:29.436Z,45.59
2023-08-27T10:55:29.423Z,45.29
2023-08-27T10:56:29.447Z,43.60
2023-08-27T10:57:29.436Z,43.26
2023-08-27T10:58:29.406Z,44.62
2023-08-27T10:59:29.409Z,43.26
2023-08-27T11:00:29.395Z,44.40
2023-08-27T11:01:29.466Z,44.13
2023-08-27T11:02:29.511Z,42.64
2023-08-27T11:03:29.456Z,43.98
2023-08-27T11:04:29.368Z,44.29
2023-08-27T11:05:29.359Z,46.25
2023-08-27T11:06:29.368Z,46.51
2023-08-27T11:07:29.339Z,46.14
2023-08-27T11:08:29.354Z,43.51
2023-08-27T11:09:29.372Z,43.37
2023-08-27T11:10:29.378Z,42.32
2023-08-27T11:11:29.337Z,42.59
2023-08-27T11:12:29.375Z,41.53
2023-08-27T11:13:29.311Z,43.23
2023-08-27T11:14:29.299Z,43.68
2023-08-27T11:15:29.356Z,43.77
2023-08-27T11:16:29.316Z,42.70
2023-08-27T11:17:29.307Z,42.49
2023-08-27T11:18:30.269Z,42.36
2023-08-27T11:19:30.821Z,40.32
2023-08-27T11:20:30.292Z,41.72
2023-08-27T11:21:29.249Z,42.20
2023-08-27T11:22:29.275Z,41.89
2023-08-27T11:23:29.282Z,42.27
2023-08-27T11:24:29.302Z,43.56
2023-08-27T11:25:30.579Z,43.61
2023-08-27T11:26:30.219Z,45.23
2023-08-27T11:27:29.248Z,45.74
2023-08-27T11:28:29.193Z,43.35
2023-08-27T11:29:29.241Z,44.89
2023-08-27T11:30:29.188Z,45.50
2023-08-27T11:31:32.022Z,46.13
2023-08-27T11:32:29.165Z,41.32
2023-08-27T11:33:29.166Z,44.35
2023-08-27T11:34:29.174Z,44.22
2023-08-27T11:35:29.144Z,42.46
2023-08-27T11:36:29.160Z,40.66
2023-08-27T11:37:29.141Z,42.19
2023-08-27T11:38:29.139Z,42.61
2023-08-27T11:39:29.146Z,43.64
2023-08-27T11:40:29.102Z,44.54
2023-08-27T11:41:29.110Z,43.03
2023-08-27T11:42:29.171Z,43.18
2023-08-27T11:43:29.122Z,41.58
2023-08-27T11:44:29.094Z,44.17
2023-08-27T11:45:29.080Z,44.80
2023-08-27T11:46:29.104Z,43.59
2023-08-27T11:47:29.121Z,44.53
2023-08-27T11:48:29.072Z,44.47
2023-08-27T11:49:29.053Z,45.31
2023-08-27T11:50:29.036Z,44.56
2023-08-27T11:51:29.025Z,44.98
2023-08-27T11:52:29.054Z,43.53
2023-08-27T11:53:29.044Z,42.42
2023-08-27T11:54:28.998Z,43.63
2023-08-27T11:55:29.000Z,43.79
2023-08-27T11:56:28.996Z,44.42
2023-08-27T11:57:29.019Z,45.84
2023-08-27T11:58:28.986Z,45.65
2023-08-27T11:59:28.967Z,42.35
2023-08-27T12:00:28.978Z,45.18
2023-08-27T12:01:28.956Z,44.13
2023-08-27T12:02:28.998Z,44.51
2023-08-27T12:03:28.960Z,42.52
2023-08-27T12:04:29.008Z,44.09
2023-08-27T12:05:28.942Z,44.57
2023-08-27T12:06:28.964Z,45.52
2023-08-27T12:07:29.553Z,44.43
2023-08-27T12:08:28.910Z,45.87
2023-08-27T12:09:28.905Z,43.33
2023-08-27T12:10:28.897Z,44.24
2023-08-27T12:11:28.932Z,47.17
2023-08-27T12:12:28.891Z,44.28
2023-08-27T12:13:28.876Z,43.60
2023-08-27T12:14:28.877Z,44.36
2023-08-27T12:15:28.859Z,43.76
2023-08-27T12:16:28.947Z,45.64
2023-08-27T12:17:28.919Z,44.89
2023-08-27T12:18:28.850Z,44.07
2023-08-27T12:19:28.834Z,44.70
2023-08-27T12:20:29.000Z,45.36
2023-08-27T12:21:28.839Z,44.95
2023-08-27T12:22:28.805Z,44.25
2023-08-27T12:23:28.806Z,43.92
2023-08-27T12:24:28.788Z,43.36
2023-08-27T12:25:29.819Z,42.86
2023-08-27T12:26:28.773Z,43.86
2023-08-27T12:27:28.787Z,45.11
2023-08-27T12:28:28.782Z,45.52
2023-08-27T12:29:28.805Z,46.24
2023-08-27T12:30:28.828Z,49.35
2023-08-27T12:31:28.746Z,51.37
2023-08-27T12:32:28.757Z,50.21
2023-08-27T12:33:28.718Z,46.21
2023-08-27T12:34:28.729Z,48.20
2023-08-27T12:35:28.711Z,52.65
2023-08-27T12:36:28.700Z,55.67
2023-08-27T12:37:28.814Z,60.11
2023-08-27T12:38:28.697Z,61.04
2023-08-27T12:39:29.687Z,62.56
2023-08-27T12:40:28.690Z,57.43
2023-08-27T12:41:28.660Z,53.15
2023-08-27T12:42:28.663Z,51.82
2023-08-27T12:43:28.680Z,49.55
2023-08-27T12:44:28.689Z,46.99
2023-08-27T12:45:28.627Z,49.14
2023-08-27T12:46:28.639Z,47.47
2023-08-27T12:47:28.680Z,47.37
2023-08-27T12:48:28.631Z,46.93
2023-08-27T12:49:28.613Z,48.68
2023-08-27T12:50:28.604Z,46.22
2023-08-27T12:51:28.586Z,46.60
2023-08-27T12:52:28.656Z,48.26